Main page
METAR-TAF:

METAR-TAF

Airports :

Aigen im Ennstal, Austria

latitude: 47-32N, longitude: 014-08E, elevation: 638 m

METAR: missing

Time: 11:04 (09:04 UTC)

Forecast

The report was made 49 minutes ago, at 08:15 UTC
Forecast valid from 21 at 09 UTC to 21 at 18 UTC
Wind 3 kt from variable directions
Visibility 10 km or more
Few clouds at a height of 6000 ft

TAF: LOXA 210815Z 2109/2118 VRB03KT 9999 FEW060

Weather observations and forecasts of more than 4000 airports (METAR and TAF reports).

The available stations are represented by yellow and red dots on the map.

Hover mouse over dot to see the name of the station.

Then click to see weather observations and forecasts.

To change the map : click on the green buttons with a black cross to zoom in, on the green button with a dash to zoom out, or on the green arrows for adjacent maps.


METAR-TAF: